createdAt,value
2023-02-25T00:00:33.608Z,0.00
2023-02-25T00:01:33.580Z,0.00
2023-02-25T00:02:33.562Z,0.00
2023-02-25T00:03:33.617Z,0.00
2023-02-25T00:04:33.464Z,0.00
2023-02-25T00:05:33.454Z,0.00
2023-02-25T00:06:33.418Z,0.00
2023-02-25T00:07:33.439Z,0.00
2023-02-25T00:08:33.358Z,0.00
2023-02-25T00:09:33.334Z,0.00
2023-02-25T00:10:33.309Z,0.00
2023-02-25T00:11:33.282Z,0.00
2023-02-25T00:12:33.278Z,0.00
2023-02-25T00:13:33.234Z,0.00
2023-02-25T00:14:33.271Z,0.00
2023-02-25T00:15:33.190Z,0.00
2023-02-25T00:16:33.192Z,0.00
2023-02-25T00:17:33.133Z,0.00
2023-02-25T00:18:33.114Z,0.00
2023-02-25T00:19:33.074Z,0.00
2023-02-25T00:20:33.061Z,0.00
2023-02-25T00:21:33.021Z,0.00
2023-02-25T00:22:33.021Z,0.00
2023-02-25T00:23:32.974Z,0.00
2023-02-25T00:24:32.953Z,0.00
2023-02-25T00:25:33.009Z,0.00
2023-02-25T00:26:33.011Z,0.00
2023-02-25T00:27:32.942Z,0.00
2023-02-25T00:28:32.863Z,0.00
2023-02-25T00:29:32.816Z,0.00
2023-02-25T00:30:32.807Z,0.00
2023-02-25T00:31:32.965Z,0.00
2023-02-25T00:32:32.835Z,0.00
2023-02-25T00:33:32.721Z,0.00
2023-02-25T00:34:32.702Z,0.00
2023-02-25T00:35:32.669Z,0.00
2023-02-25T00:36:32.642Z,0.00
2023-02-25T00:37:32.610Z,0.00
2023-02-25T00:38:32.609Z,0.00
2023-02-25T00:39:32.620Z,0.00
2023-02-25T00:40:32.561Z,0.00
2023-02-25T00:41:32.524Z,0.00
2023-02-25T00:42:32.490Z,0.00
2023-02-25T00:43:32.457Z,0.00
2023-02-25T00:44:32.445Z,0.00
2023-02-25T00:45:32.409Z,0.00
2023-02-25T00:46:32.456Z,0.00
2023-02-25T00:47:32.370Z,0.00
2023-02-25T00:48:32.345Z,0.00
2023-02-25T00:49:32.876Z,0.00
2023-02-25T00:50:32.303Z,0.00
2023-02-25T00:51:32.257Z,0.00
2023-02-25T00:52:32.229Z,0.00
2023-02-25T00:53:32.204Z,0.00
2023-02-25T00:54:32.178Z,0.00
2023-02-25T00:55:32.160Z,0.00
2023-02-25T00:56:32.143Z,0.00
2023-02-25T00:57:32.141Z,0.00
2023-02-25T00:58:32.079Z,0.00
2023-02-25T00:59:32.052Z,0.00
2023-02-25T01:00:40.483Z,0.00
2023-02-25T01:01:32.108Z,0.00
2023-02-25T01:02:31.986Z,0.00
2023-02-25T01:03:31.947Z,0.00
2023-02-25T01:04:31.928Z,0.00
2023-02-25T01:05:31.890Z,0.00
2023-02-25T01:06:31.878Z,0.00
2023-02-25T01:07:31.848Z,0.00
2023-02-25T01:08:31.821Z,0.00
2023-02-25T01:09:31.799Z,0.00
2023-02-25T01:10:31.771Z,0.00
2023-02-25T01:11:31.760Z,0.00
2023-02-25T01:12:31.737Z,0.00
2023-02-25T01:13:31.792Z,0.00
2023-02-25T01:14:31.663Z,0.00
2023-02-25T01:15:31.641Z,0.00
2023-02-25T01:16:31.763Z,0.00
2023-02-25T01:17:31.591Z,0.00
2023-02-25T01:18:31.556Z,0.00
2023-02-25T01:19:31.567Z,0.00
2023-02-25T01:20:31.508Z,0.00
2023-02-25T01:21:31.558Z,0.00
2023-02-25T01:22:31.478Z,0.00
2023-02-25T01:23:31.430Z,0.00
2023-02-25T01:24:31.436Z,0.00
2023-02-25T01:25:31.395Z,0.00
2023-02-25T01:26:31.384Z,0.00
2023-02-25T01:27:31.336Z,0.00
2023-02-25T01:28:31.307Z,0.00
2023-02-25T01:29:31.272Z,0.00
2023-02-25T01:30:31.249Z,0.00
2023-02-25T01:31:31.485Z,0.00
2023-02-25T01:32:31.385Z,0.00
2023-02-25T01:33:31.171Z,0.00
2023-02-25T01:34:31.148Z,0.00
2023-02-25T01:35:31.140Z,0.00
2023-02-25T01:36:31.100Z,0.00
2023-02-25T01:37:31.082Z,0.00
2023-02-25T01:38:31.095Z,0.00
2023-02-25T01:39:31.018Z,0.00
2023-02-25T01:40:31.055Z,0.00
2023-02-25T01:41:30.986Z,0.00
2023-02-25T01:42:31.110Z,0.00
2023-02-25T01:43:30.921Z,0.00
2023-02-25T01:44:30.885Z,0.00
2023-02-25T01:45:30.874Z,0.00
2023-02-25T01:46:30.877Z,0.00
2023-02-25T01:47:30.813Z,0.00
2023-02-25T01:48:30.856Z,0.00
2023-02-25T01:49:30.868Z,0.00
2023-02-25T01:50:30.802Z,0.00
2023-02-25T01:51:30.832Z,0.00
2023-02-25T01:52:30.690Z,0.00
2023-02-25T01:53:30.669Z,0.00
2023-02-25T01:54:30.684Z,0.00
2023-02-25T01:55:30.610Z,0.00
2023-02-25T01:56:30.583Z,0.00
2023-02-25T01:57:30.565Z,0.00
2023-02-25T01:58:30.525Z,0.00
2023-02-25T01:59:30.516Z,0.00
2023-02-25T02:00:30.538Z,0.00
2023-02-25T02:01:30.500Z,0.00
2023-02-25T02:02:30.571Z,0.00
2023-02-25T02:03:30.484Z,0.00
2023-02-25T02:04:30.412Z,0.00
2023-02-25T02:05:30.360Z,0.00
2023-02-25T02:06:30.414Z,0.00
2023-02-25T02:07:30.354Z,0.00
2023-02-25T02:08:30.483Z,0.00
2023-02-25T02:09:30.289Z,0.00
2023-02-25T02:10:30.257Z,0.00
2023-02-25T02:11:30.236Z,0.00
2023-02-25T02:12:30.171Z,0.00
2023-02-25T02:13:30.164Z,0.00
2023-02-25T02:14:30.160Z,0.00
2023-02-25T02:15:30.112Z,0.00
2023-02-25T02:16:30.130Z,0.00
2023-02-25T02:17:30.545Z,0.00
2023-02-25T02:18:30.197Z,0.00
2023-02-25T02:19:30.066Z,0.00
2023-02-25T02:20:29.981Z,0.00
2023-02-25T02:21:29.940Z,0.00
2023-02-25T02:22:29.908Z,0.00
2023-02-25T02:23:29.903Z,0.00
2023-02-25T02:24:29.860Z,0.00
2023-02-25T02:25:29.836Z,0.00
2023-02-25T02:26:29.816Z,0.00
2023-02-25T02:27:30.039Z,0.00
2023-02-25T02:28:30.054Z,0.00
2023-02-25T02:29:29.873Z,0.00
2023-02-25T02:30:29.833Z,0.00
2023-02-25T02:31:30.026Z,0.00
2023-02-25T02:32:29.821Z,0.00
2023-02-25T02:33:29.790Z,0.00
2023-02-25T02:34:29.767Z,0.00
2023-02-25T02:35:29.758Z,0.00
2023-02-25T02:37:29.650Z,0.00
2023-02-25T02:38:29.587Z,0.00
2023-02-25T02:39:29.591Z,0.00
2023-02-25T02:40:29.511Z,0.00
2023-02-25T02:41:29.422Z,0.00
2023-02-25T02:42:29.418Z,0.00
2023-02-25T02:43:29.544Z,0.00
2023-02-25T02:44:29.422Z,0.00
2023-02-25T02:45:29.519Z,0.00
2023-02-25T02:46:29.288Z,0.00
2023-02-25T02:47:29.273Z,0.00
2023-02-25T02:49:29.282Z,0.00
2023-02-25T02:50:29.441Z,0.00
2023-02-25T02:51:29.167Z,0.00
2023-02-25T02:52:29.149Z,0.00
2023-02-25T02:53:29.121Z,0.00
2023-02-25T02:54:29.078Z,0.00
2023-02-25T02:55:29.076Z,0.00
2023-02-25T02:56:29.025Z,0.00
2023-02-25T02:57:29.032Z,0.00
2023-02-25T02:58:28.983Z,0.00
2023-02-25T02:59:29.035Z,0.00
2023-02-25T03:00:29.028Z,0.00
2023-02-25T03:01:28.941Z,0.00
2023-02-25T03:02:28.867Z,0.00
2023-02-25T03:03:28.846Z,0.00
2023-02-25T03:04:28.864Z,0.00
2023-02-25T03:05:28.813Z,0.00
2023-02-25T03:06:28.783Z,0.00
2023-02-25T03:07:28.769Z,0.00
2023-02-25T03:08:28.795Z,0.00
2023-02-25T03:09:28.699Z,0.00
2023-02-25T03:10:28.680Z,0.00
2023-02-25T03:11:28.651Z,0.00
2023-02-25T03:12:28.616Z,0.00
2023-02-25T03:13:28.590Z,0.00
2023-02-25T03:14:28.617Z,0.00
2023-02-25T03:15:28.534Z,0.00
2023-02-25T03:16:28.583Z,0.00
2023-02-25T03:17:28.495Z,0.00
2023-02-25T03:18:28.459Z,0.00
2023-02-25T03:19:28.588Z,0.00
2023-02-25T03:21:28.509Z,0.00
2023-02-25T03:22:28.733Z,0.00
2023-02-25T03:23:28.567Z,0.00
2023-02-25T03:24:28.506Z,0.00
2023-02-25T03:25:28.364Z,0.00
2023-02-25T03:27:28.242Z,0.00
2023-02-25T03:28:28.206Z,0.00
2023-02-25T03:29:28.185Z,0.00
2023-02-25T03:30:28.202Z,0.00
2023-02-25T03:31:28.146Z,0.00
2023-02-25T03:32:28.190Z,0.00
2023-02-25T03:33:28.094Z,0.00
2023-02-25T03:34:28.055Z,0.00
2023-02-25T03:35:28.094Z,0.00
2023-02-25T03:37:28.102Z,0.00
2023-02-25T03:38:27.954Z,0.00
2023-02-25T03:39:27.940Z,0.00
2023-02-25T03:40:27.933Z,0.00
2023-02-25T03:41:27.884Z,0.00
2023-02-25T03:42:27.856Z,0.00
2023-02-25T03:43:27.859Z,0.00
2023-02-25T03:44:27.803Z,0.00
2023-02-25T03:45:27.782Z,0.00
2023-02-25T03:46:28.069Z,0.00
2023-02-25T03:47:27.768Z,0.00
2023-02-25T03:48:27.709Z,0.00
2023-02-25T03:49:27.681Z,0.00
2023-02-25T03:50:27.660Z,0.00
2023-02-25T03:51:27.655Z,0.00
2023-02-25T03:52:27.595Z,0.00
2023-02-25T03:53:27.572Z,0.00
2023-02-25T03:54:27.630Z,0.00
2023-02-25T03:55:27.553Z,0.00
2023-02-25T03:56:27.678Z,0.00
2023-02-25T03:57:27.584Z,0.00
2023-02-25T03:58:27.562Z,0.00
2023-02-25T04:00:27.486Z,0.00
2023-02-25T04:01:27.371Z,0.00
2023-02-25T04:02:27.380Z,0.00
2023-02-25T04:03:27.323Z,0.00
2023-02-25T04:04:27.318Z,0.00
2023-02-25T04:05:27.273Z,0.00
2023-02-25T04:06:27.226Z,0.00
2023-02-25T04:07:27.209Z,0.00
2023-02-25T04:08:27.178Z,0.00
2023-02-25T04:09:27.149Z,0.00
2023-02-25T04:10:27.128Z,0.00
2023-02-25T04:11:27.115Z,0.00
2023-02-25T04:12:27.068Z,0.00
2023-02-25T04:13:27.048Z,0.00
2023-02-25T04:14:27.024Z,0.00
2023-02-25T04:15:27.033Z,0.00
2023-02-25T04:16:26.970Z,0.00
2023-02-25T04:17:26.958Z,0.00
2023-02-25T04:18:26.921Z,0.00
2023-02-25T04:19:26.895Z,0.00
2023-02-25T04:20:27.013Z,0.00
2023-02-25T04:22:26.956Z,0.00
2023-02-25T04:23:26.905Z,0.00
2023-02-25T04:24:26.909Z,0.00
2023-02-25T04:25:26.737Z,0.00
2023-02-25T04:26:26.711Z,0.00
2023-02-25T04:27:26.785Z,0.00
2023-02-25T04:28:26.825Z,0.00
2023-02-25T04:29:26.704Z,0.00
2023-02-25T04:30:26.759Z,0.00
2023-02-25T04:31:26.810Z,0.00
2023-02-25T04:32:26.901Z,0.00
2023-02-25T04:33:26.548Z,0.00
2023-02-25T04:34:26.554Z,0.00
2023-02-25T04:35:26.498Z,0.00
2023-02-25T04:36:26.495Z,0.00
2023-02-25T04:37:26.451Z,0.00
2023-02-25T04:38:26.399Z,0.00
2023-02-25T04:39:26.378Z,0.00
2023-02-25T04:40:26.519Z,0.00
2023-02-25T04:41:26.573Z,0.00
2023-02-25T04:42:26.423Z,0.00
2023-02-25T04:43:26.477Z,0.00
2023-02-25T04:44:26.531Z,0.00
2023-02-25T04:45:27.116Z,0.00
2023-02-25T04:46:26.648Z,0.00
2023-02-25T04:47:26.167Z,0.00
2023-02-25T04:48:26.138Z,0.00
2023-02-25T04:49:26.140Z,0.00
2023-02-25T04:50:26.123Z,0.00
2023-02-25T04:51:26.070Z,0.00
2023-02-25T04:52:26.036Z,0.00
2023-02-25T04:53:26.045Z,0.00
2023-02-25T04:54:25.989Z,0.00
2023-02-25T04:55:25.968Z,0.00
2023-02-25T04:56:26.100Z,0.00
2023-02-25T04:57:25.922Z,0.00
2023-02-25T04:58:25.888Z,0.00
2023-02-25T04:59:26.108Z,0.00
2023-02-25T05:00:25.935Z,0.00
2023-02-25T05:01:25.912Z,0.00
2023-02-25T05:02:25.781Z,0.00
2023-02-25T05:03:25.756Z,0.00
2023-02-25T05:04:25.788Z,0.00
2023-02-25T05:05:25.740Z,0.00
2023-02-25T05:06:25.934Z,0.00
2023-02-25T05:07:25.660Z,0.00
2023-02-25T05:08:25.634Z,0.00
2023-02-25T05:09:25.681Z,0.00
2023-02-25T05:10:25.600Z,0.00
2023-02-25T05:11:25.600Z,0.00
2023-02-25T05:12:25.528Z,0.00
2023-02-25T05:13:25.507Z,0.00
2023-02-25T05:14:25.480Z,0.00
2023-02-25T05:15:25.488Z,0.00
2023-02-25T05:16:25.841Z,0.00
2023-02-25T05:17:25.841Z,0.00
2023-02-25T05:18:25.609Z,0.00
2023-02-25T05:19:25.764Z,0.00
2023-02-25T05:20:25.412Z,0.00
2023-02-25T05:21:25.339Z,0.00
2023-02-25T05:22:25.344Z,0.00
2023-02-25T05:23:25.350Z,0.00
2023-02-25T05:24:25.323Z,0.00
2023-02-25T05:25:25.202Z,0.00
2023-02-25T05:26:25.505Z,0.00
2023-02-25T05:27:25.151Z,0.00
2023-02-25T05:28:25.163Z,0.00
2023-02-25T05:29:25.119Z,0.00
2023-02-25T05:31:25.469Z,0.00
2023-02-25T05:32:25.652Z,0.00
2023-02-25T05:33:25.154Z,0.00
2023-02-25T05:34:25.062Z,0.00
2023-02-25T05:35:24.960Z,0.00
2023-02-25T05:36:27.975Z,0.00
2023-02-25T05:37:24.888Z,0.00
2023-02-25T05:38:24.849Z,0.00
2023-02-25T05:39:24.828Z,0.00
2023-02-25T05:40:24.944Z,0.00
2023-02-25T05:41:24.931Z,0.00
2023-02-25T05:42:25.171Z,0.00
2023-02-25T05:43:24.784Z,0.00
2023-02-25T05:44:24.700Z,0.00
2023-02-25T05:45:24.685Z,0.00
2023-02-25T05:46:25.045Z,0.00
2023-02-25T05:47:24.663Z,0.00
2023-02-25T05:48:24.746Z,4.00
2023-02-25T05:49:24.773Z,4.00
2023-02-25T05:50:24.689Z,4.00
2023-02-25T05:51:24.528Z,4.00
2023-02-25T05:52:24.493Z,4.00
2023-02-25T05:53:24.874Z,4.00
2023-02-25T05:54:24.712Z,4.00
2023-02-25T05:55:24.592Z,8.00
2023-02-25T05:56:24.675Z,8.00
2023-02-25T05:57:24.629Z,12.00
2023-02-25T05:58:24.555Z,12.00
2023-02-25T05:59:24.305Z,16.00
2023-02-25T06:00:24.306Z,20.00
2023-02-25T06:01:24.261Z,24.00
2023-02-25T06:02:24.323Z,28.00
2023-02-25T06:03:24.249Z,32.00
2023-02-25T06:04:24.219Z,36.00
2023-02-25T06:05:24.186Z,44.00
2023-02-25T06:06:24.600Z,52.00
2023-02-25T06:07:24.245Z,60.00
2023-02-25T06:08:24.085Z,68.00
2023-02-25T06:09:24.131Z,80.00
2023-02-25T06:10:24.098Z,88.00
2023-02-25T06:11:24.114Z,100.00
2023-02-25T06:12:23.978Z,112.00
2023-02-25T06:13:23.953Z,128.00
2023-02-25T06:14:24.245Z,144.00
2023-02-25T06:15:24.058Z,160.00
2023-02-25T06:16:24.449Z,176.00
2023-02-25T06:17:24.106Z,192.00
2023-02-25T06:18:23.859Z,200.00
2023-02-25T06:19:24.106Z,216.00
2023-02-25T06:20:23.769Z,228.00
2023-02-25T06:21:23.747Z,244.00
2023-02-25T06:22:23.714Z,260.00
2023-02-25T06:23:23.685Z,272.00
2023-02-25T06:24:23.669Z,276.00
2023-02-25T06:25:23.641Z,260.00
2023-02-25T06:26:23.874Z,232.00
2023-02-25T06:27:23.599Z,216.00
2023-02-25T06:28:23.644Z,224.00
2023-02-25T06:29:23.572Z,224.00
2023-02-25T06:30:23.512Z,224.00
2023-02-25T06:31:23.567Z,228.00
2023-02-25T06:32:23.657Z,232.00
2023-02-25T06:33:23.426Z,264.00
2023-02-25T06:34:23.417Z,308.00
2023-02-25T06:36:23.808Z,360.00
2023-02-25T06:37:23.436Z,400.00
2023-02-25T06:38:23.405Z,436.00
2023-02-25T06:39:23.426Z,500.00
2023-02-25T06:40:23.318Z,560.00
2023-02-25T06:41:23.322Z,556.00
2023-02-25T06:42:23.254Z,572.00
2023-02-25T06:43:23.291Z,560.00
2023-02-25T06:44:23.198Z,556.00
2023-02-25T06:45:23.265Z,540.00
2023-02-25T06:46:23.561Z,544.00
2023-02-25T06:47:23.245Z,560.00
2023-02-25T06:48:23.288Z,576.00
2023-02-25T06:49:23.133Z,656.00
2023-02-25T06:50:23.179Z,752.00
2023-02-25T06:51:22.975Z,800.00
2023-02-25T06:52:22.940Z,804.00
2023-02-25T06:54:23.109Z,740.00
2023-02-25T06:55:23.013Z,692.00
2023-02-25T06:56:23.386Z,692.00
2023-02-25T06:58:22.950Z,740.00
2023-02-25T06:59:22.766Z,708.00
2023-02-25T07:00:22.748Z,708.00
2023-02-25T07:01:22.786Z,780.00
2023-02-25T07:02:22.707Z,852.00
2023-02-25T07:03:22.658Z,856.00
2023-02-25T07:04:22.987Z,840.00
2023-02-25T07:05:22.629Z,876.00
2023-02-25T07:06:22.987Z,872.00
2023-02-25T07:07:22.563Z,852.00
2023-02-25T07:08:22.530Z,860.00
2023-02-25T07:09:22.509Z,960.00
2023-02-25T07:10:22.504Z,1060.00
2023-02-25T07:11:22.450Z,1140.00
2023-02-25T07:12:22.447Z,1224.00
2023-02-25T07:13:22.404Z,1288.00
2023-02-25T07:14:22.369Z,1300.00
2023-02-25T07:15:22.345Z,1356.00
2023-02-25T07:16:22.715Z,1424.00
2023-02-25T07:17:22.296Z,1416.00
2023-02-25T07:18:22.270Z,1420.00
2023-02-25T07:19:22.240Z,1360.00
2023-02-25T07:20:22.242Z,1292.00
2023-02-25T07:21:22.193Z,1252.00
2023-02-25T07:22:24.146Z,1280.00
2023-02-25T07:23:22.138Z,1288.00
2023-02-25T07:24:22.169Z,1196.00
2023-02-25T07:25:22.179Z,1112.00
2023-02-25T07:26:22.525Z,1088.00
2023-02-25T07:27:22.037Z,1144.00
2023-02-25T07:28:22.012Z,1272.00
2023-02-25T07:29:21.981Z,1496.00
2023-02-25T07:30:21.966Z,1588.00
2023-02-25T07:31:22.681Z,1628.00
2023-02-25T07:32:22.106Z,1720.00
2023-02-25T07:33:21.924Z,1648.00
2023-02-25T07:34:21.868Z,1720.00
2023-02-25T07:35:21.831Z,1804.00
2023-02-25T07:36:21.857Z,1684.00
2023-02-25T07:37:21.785Z,1616.00
2023-02-25T07:38:21.793Z,1600.00
2023-02-25T07:39:21.744Z,1568.00
2023-02-25T07:40:21.712Z,1588.00
2023-02-25T07:41:22.000Z,1560.00
2023-02-25T07:42:21.660Z,1548.00
2023-02-25T07:43:21.622Z,1672.00
2023-02-25T07:44:21.616Z,1828.00
2023-02-25T07:45:21.585Z,1728.00
2023-02-25T07:46:21.586Z,1700.00
2023-02-25T07:47:21.520Z,1720.00
2023-02-25T07:48:21.528Z,1656.00
2023-02-25T07:49:21.480Z,1608.00
2023-02-25T07:50:21.457Z,1640.00
2023-02-25T07:51:21.731Z,1716.00
2023-02-25T07:52:21.401Z,1776.00
2023-02-25T07:53:21.382Z,1892.00
2023-02-25T07:54:21.356Z,1900.00
2023-02-25T07:55:21.329Z,1876.00
2023-02-25T07:56:21.301Z,1912.00
2023-02-25T07:57:21.277Z,1936.00
2023-02-25T07:58:21.270Z,2052.00
2023-02-25T07:59:21.234Z,2124.00
2023-02-25T08:00:21.220Z,2544.00
2023-02-25T08:01:21.615Z,2972.00
2023-02-25T08:02:21.213Z,3272.00
2023-02-25T08:03:21.116Z,3172.00
2023-02-25T08:04:21.161Z,3268.00
2023-02-25T08:05:21.093Z,3408.00
2023-02-25T08:06:21.041Z,3224.00
2023-02-25T08:07:21.012Z,3328.00
2023-02-25T08:08:20.991Z,3540.00
2023-02-25T08:09:20.962Z,3468.00
2023-02-25T08:10:20.949Z,3348.00
2023-02-25T08:11:21.131Z,3428.00
2023-02-25T08:12:20.889Z,3368.00
2023-02-25T08:13:20.863Z,3296.00
2023-02-25T08:14:20.842Z,3084.00
2023-02-25T08:15:20.810Z,3208.00
2023-02-25T08:16:20.837Z,3744.00
2023-02-25T08:17:20.780Z,4324.00
2023-02-25T08:18:20.753Z,4852.00
2023-02-25T08:19:20.716Z,4632.00
2023-02-25T08:20:20.693Z,4712.00
2023-02-25T08:21:21.032Z,4292.00
2023-02-25T08:22:20.703Z,4452.00
2023-02-25T08:23:20.626Z,4136.00
2023-02-25T08:24:20.622Z,3552.00
2023-02-25T08:25:20.600Z,3572.00
2023-02-25T08:26:20.550Z,3204.00
2023-02-25T08:27:20.516Z,3152.00
2023-02-25T08:28:20.495Z,3056.00
2023-02-25T08:29:20.464Z,2724.00
2023-02-25T08:30:20.443Z,2212.00
2023-02-25T08:31:20.563Z,2072.00
2023-02-25T08:32:20.518Z,2348.00
2023-02-25T08:33:20.365Z,2544.00
2023-02-25T08:34:20.337Z,2284.00
2023-02-25T08:35:20.325Z,2184.00
2023-02-25T08:36:20.282Z,2304.00
2023-02-25T08:37:20.263Z,2376.00
2023-02-25T08:38:20.257Z,2640.00
2023-02-25T08:39:20.194Z,2900.00
2023-02-25T08:40:20.182Z,3148.00
2023-02-25T08:41:20.155Z,3156.00
2023-02-25T08:42:20.130Z,3196.00
2023-02-25T08:43:20.092Z,3244.00
2023-02-25T08:44:20.082Z,2800.00
2023-02-25T08:45:20.045Z,2560.00
2023-02-25T08:46:21.291Z,2616.00
2023-02-25T08:47:19.997Z,2704.00
2023-02-25T08:48:19.990Z,2840.00
2023-02-25T08:49:19.940Z,2836.00
2023-02-25T08:50:19.948Z,2632.00
2023-02-25T08:51:19.933Z,2808.00
2023-02-25T08:52:19.869Z,2936.00
2023-02-25T08:53:19.841Z,2956.00
2023-02-25T08:54:19.814Z,2928.00
2023-02-25T08:55:19.784Z,2712.00
2023-02-25T08:56:19.763Z,2812.00
2023-02-25T08:57:19.758Z,2832.00
2023-02-25T08:58:19.742Z,3120.00
2023-02-25T08:59:19.693Z,3300.00
2023-02-25T09:00:19.685Z,3328.00
2023-02-25T09:01:19.711Z,3492.00
2023-02-25T09:02:19.620Z,3552.00
2023-02-25T09:03:19.586Z,3584.00
2023-02-25T09:04:19.619Z,3860.00
2023-02-25T09:05:20.742Z,3988.00
2023-02-25T09:06:19.529Z,4064.00
2023-02-25T09:07:19.488Z,4524.00
2023-02-25T09:08:19.470Z,4588.00
2023-02-25T09:09:19.454Z,5400.00
2023-02-25T09:10:19.407Z,6148.00
2023-02-25T09:11:19.394Z,7132.00
2023-02-25T09:12:19.366Z,6796.00
2023-02-25T09:13:19.324Z,7412.00
2023-02-25T09:14:19.328Z,8408.00
2023-02-25T09:15:19.276Z,8332.00
2023-02-25T09:16:19.338Z,8352.00
2023-02-25T09:17:19.231Z,8388.00
2023-02-25T09:18:19.257Z,8796.00
2023-02-25T09:19:19.175Z,9200.00
2023-02-25T09:20:19.157Z,9108.00
2023-02-25T09:21:19.119Z,9280.00
2023-02-25T09:22:19.109Z,9424.00
2023-02-25T09:23:19.118Z,9596.00
2023-02-25T09:24:19.064Z,10332.00
2023-02-25T09:25:19.041Z,10436.00
2023-02-25T09:26:19.010Z,11104.00
2023-02-25T09:27:18.972Z,10252.00
2023-02-25T09:28:18.961Z,10544.00
2023-02-25T09:29:18.945Z,10216.00
2023-02-25T09:30:18.909Z,8480.00
2023-02-25T09:31:19.010Z,7012.00
2023-02-25T09:32:19.000Z,6664.00
2023-02-25T09:33:18.901Z,6768.00
2023-02-25T09:34:18.812Z,6328.00
2023-02-25T09:35:18.786Z,5944.00
2023-02-25T09:36:18.765Z,6320.00
2023-02-25T09:37:18.726Z,6652.00
2023-02-25T09:38:18.703Z,7384.00
2023-02-25T09:39:18.669Z,7356.00
2023-02-25T09:40:18.665Z,8672.00
2023-02-25T09:41:18.633Z,8564.00
2023-02-25T09:42:18.605Z,7624.00
2023-02-25T09:43:18.577Z,8132.00
2023-02-25T09:44:18.564Z,8184.00
2023-02-25T09:45:18.526Z,8448.00
2023-02-25T09:46:18.565Z,8184.00
2023-02-25T09:47:18.520Z,8028.00
2023-02-25T09:48:18.472Z,7296.00
2023-02-25T09:49:18.422Z,6180.00
2023-02-25T09:50:18.410Z,6484.00
2023-02-25T09:51:18.380Z,6788.00
2023-02-25T09:52:18.355Z,6344.00
2023-02-25T09:53:18.326Z,5056.00
2023-02-25T09:54:18.310Z,4784.00
2023-02-25T09:55:18.287Z,4776.00
2023-02-25T09:56:18.256Z,4220.00
2023-02-25T09:57:18.264Z,3804.00
2023-02-25T09:58:18.209Z,3968.00
2023-02-25T09:59:18.179Z,3568.00
2023-02-25T10:00:18.161Z,3788.00
2023-02-25T10:01:18.190Z,4288.00
2023-02-25T10:02:18.207Z,4452.00
2023-02-25T10:03:18.239Z,3852.00
2023-02-25T10:04:18.103Z,3952.00
2023-02-25T10:05:18.034Z,4984.00
2023-02-25T10:06:18.016Z,6260.00
2023-02-25T10:07:17.984Z,6256.00
2023-02-25T10:08:17.959Z,5372.00
2023-02-25T10:09:17.935Z,5544.00
2023-02-25T10:10:17.929Z,5236.00
2023-02-25T10:11:17.882Z,4940.00
2023-02-25T10:12:20.209Z,6328.00
2023-02-25T10:13:17.836Z,6808.00
2023-02-25T10:14:17.820Z,7964.00
2023-02-25T10:15:17.789Z,8880.00
2023-02-25T10:16:17.768Z,10428.00
2023-02-25T10:17:17.736Z,9892.00
2023-02-25T10:18:17.721Z,8680.00
2023-02-25T10:19:17.682Z,7616.00
2023-02-25T10:20:17.664Z,7672.00
2023-02-25T10:21:17.634Z,8184.00
2023-02-25T10:22:17.627Z,9632.00
2023-02-25T10:23:17.592Z,10864.00
2023-02-25T10:24:17.632Z,12052.00
2023-02-25T10:25:17.540Z,11508.00
2023-02-25T10:26:17.511Z,11240.00
2023-02-25T10:27:17.485Z,12364.00
2023-02-25T10:28:17.458Z,13024.00
2023-02-25T10:29:17.435Z,13016.00
2023-02-25T10:30:17.414Z,12016.00
2023-02-25T10:31:17.489Z,13060.00
2023-02-25T10:32:17.611Z,13992.00
2023-02-25T10:33:17.356Z,14684.00
2023-02-25T10:34:17.311Z,16388.00
2023-02-25T10:35:17.285Z,20704.00
2023-02-25T10:37:17.294Z,14404.00
2023-02-25T10:38:17.214Z,15332.00
2023-02-25T10:39:17.194Z,18592.00
2023-02-25T10:40:17.185Z,40864.00
2023-02-25T10:41:17.174Z,29152.00
2023-02-25T10:42:17.124Z,50144.00
2023-02-25T10:43:17.108Z,33312.00
2023-02-25T10:44:17.072Z,19840.00
2023-02-25T10:45:17.045Z,17440.00
2023-02-25T10:46:17.047Z,17760.00
2023-02-25T10:47:17.029Z,23264.00
2023-02-25T10:48:16.974Z,25312.00
2023-02-25T10:49:16.980Z,53056.00
2023-02-25T10:50:16.922Z,46976.00
2023-02-25T10:51:16.895Z,54848.00
2023-02-25T10:52:16.873Z,54560.00
2023-02-25T10:53:16.854Z,54304.00
2023-02-25T10:54:16.840Z,32832.00
2023-02-25T10:55:16.809Z,23296.00
2023-02-25T10:56:16.781Z,46112.00
2023-02-25T10:57:16.763Z,41984.00
2023-02-25T10:58:16.752Z,47392.00
2023-02-25T10:59:16.722Z,40512.00
2023-02-25T11:00:16.697Z,18688.00
2023-02-25T11:01:16.713Z,18368.00
2023-02-25T11:02:16.712Z,18336.00
2023-02-25T11:03:16.637Z,17408.00
2023-02-25T11:04:16.661Z,14852.00
2023-02-25T11:05:16.589Z,13420.00
2023-02-25T11:06:16.561Z,12868.00
2023-02-25T11:07:16.551Z,12412.00
2023-02-25T11:08:16.540Z,12192.00
2023-02-25T11:09:16.591Z,11984.00
2023-02-25T11:10:16.480Z,11456.00
2023-02-25T11:11:16.527Z,11468.00
2023-02-25T11:12:16.437Z,11688.00
2023-02-25T11:13:16.416Z,11768.00
2023-02-25T11:14:16.395Z,11804.00
2023-02-25T11:15:16.362Z,11488.00
2023-02-25T11:16:16.345Z,10244.00
2023-02-25T11:17:16.320Z,8308.00
2023-02-25T11:18:16.329Z,7836.00
2023-02-25T11:19:16.278Z,8020.00
2023-02-25T11:20:16.243Z,8540.00
2023-02-25T11:21:16.268Z,8516.00
2023-02-25T11:22:16.207Z,8572.00
2023-02-25T11:23:16.172Z,9248.00
2023-02-25T11:24:16.159Z,9848.00
2023-02-25T11:25:16.146Z,8768.00
2023-02-25T11:26:16.101Z,7552.00
2023-02-25T11:27:16.114Z,6916.00
2023-02-25T11:28:16.051Z,6660.00
2023-02-25T11:29:16.033Z,6976.00
2023-02-25T11:30:16.044Z,7792.00
2023-02-25T11:31:16.156Z,8596.00
2023-02-25T11:32:16.170Z,9304.00
2023-02-25T11:33:15.954Z,10700.00
2023-02-25T11:34:15.930Z,12564.00
2023-02-25T11:35:15.905Z,14556.00
2023-02-25T11:36:15.865Z,15552.00
2023-02-25T11:37:15.835Z,16388.00
2023-02-25T11:38:15.820Z,18656.00
2023-02-25T11:39:15.797Z,18720.00
2023-02-25T11:40:15.760Z,19712.00
2023-02-25T11:41:15.737Z,19328.00
2023-02-25T11:42:15.736Z,17728.00
2023-02-25T11:43:15.692Z,16100.00
2023-02-25T11:44:15.667Z,15008.00
2023-02-25T11:45:15.641Z,14960.00
2023-02-25T11:46:15.632Z,13808.00
2023-02-25T11:47:15.597Z,10888.00
2023-02-25T11:48:15.612Z,9208.00
2023-02-25T11:49:15.570Z,8172.00
2023-02-25T11:50:15.559Z,7068.00
2023-02-25T11:51:15.525Z,5884.00
2023-02-25T11:52:15.483Z,5472.00
2023-02-25T11:53:15.540Z,6332.00
2023-02-25T11:54:15.433Z,6940.00
2023-02-25T11:55:15.431Z,6920.00
2023-02-25T11:56:15.375Z,7116.00
2023-02-25T11:57:15.370Z,8364.00
2023-02-25T11:58:15.343Z,10852.00
2023-02-25T11:59:15.316Z,12248.00
2023-02-25T12:00:15.283Z,12040.00
2023-02-25T12:01:15.262Z,12728.00
2023-02-25T12:02:15.251Z,12740.00
2023-02-25T12:03:15.209Z,11904.00
2023-02-25T12:04:15.191Z,11232.00
2023-02-25T12:05:15.161Z,10544.00
2023-02-25T12:06:15.159Z,9852.00
2023-02-25T12:07:15.109Z,9040.00
2023-02-25T12:08:15.103Z,8072.00
2023-02-25T12:09:15.096Z,6784.00
2023-02-25T12:10:15.052Z,5408.00
2023-02-25T12:11:15.017Z,4032.00
2023-02-25T12:12:14.996Z,3180.00
2023-02-25T12:13:14.964Z,3040.00
2023-02-25T12:14:14.948Z,3308.00
2023-02-25T12:15:14.937Z,4068.00
2023-02-25T12:16:14.909Z,5060.00
2023-02-25T12:17:14.871Z,5832.00
2023-02-25T12:18:14.861Z,6852.00
2023-02-25T12:19:14.833Z,7448.00
2023-02-25T12:20:14.790Z,7448.00
2023-02-25T12:21:14.780Z,7176.00
2023-02-25T12:22:14.766Z,6312.00
2023-02-25T12:23:14.723Z,5216.00
2023-02-25T12:24:14.694Z,4636.00
2023-02-25T12:25:14.676Z,4164.00
2023-02-25T12:26:14.652Z,3596.00
2023-02-25T12:27:14.674Z,3440.00
2023-02-25T12:28:14.598Z,3528.00
2023-02-25T12:29:14.585Z,3508.00
2023-02-25T12:30:14.558Z,3572.00
2023-02-25T12:31:14.556Z,3624.00
2023-02-25T12:32:14.538Z,3796.00
2023-02-25T12:33:14.487Z,3724.00
2023-02-25T12:34:14.455Z,3704.00
2023-02-25T12:35:14.427Z,4024.00
2023-02-25T12:36:14.398Z,4836.00
2023-02-25T12:37:14.380Z,6816.00
2023-02-25T12:38:14.364Z,8948.00
2023-02-25T12:39:14.338Z,10212.00
2023-02-25T12:40:14.309Z,9580.00
2023-02-25T12:41:14.283Z,9304.00
2023-02-25T12:42:14.272Z,9424.00
2023-02-25T12:43:14.230Z,9452.00
2023-02-25T12:44:14.204Z,8680.00
2023-02-25T12:45:14.217Z,6932.00
2023-02-25T12:46:14.183Z,5960.00
2023-02-25T12:47:14.147Z,5188.00
2023-02-25T12:48:14.188Z,4908.00
2023-02-25T12:49:14.085Z,5560.00